METAR Analyzer

一覧表示

Hello, Guest. (Login)

RJCC/CTS  -  札幌/新千歳

観測日時
2022-09-30 06:00 (UTC) (31分前)
気温
21
露点
18
湿数
3
相対湿度
83%
QNH
1014.9hPa
推定現地気圧
1011.9hPa
推定海面気圧
1014.8hPa
体感温度
12.6
(無風時)
21.8
HI
21.3
気温前日比
-1
体感温度前日比
-2.9
HI前日比
-0.8
水平視程
>10000m
鉛直視程
データなし
雲底高度
No dense clouds
V/I
VMC (VFR)
RVR
No RVR data
卓越風
15kt from 170°
ガスト
No gust
降水
報告なし
その他の天気
報告なし
少しの(1/8) 層雲 @ 1000ft AGL / 散在する(3/8) 層雲 @ 1500ft AGL

RJCC 300600Z 17015KT 9999 FEW010 SCT015 21/18 Q1015 RMK 1ST010 3ST015 A2997

RJCO/OKD  -  札幌/丘珠

観測日時
2022-09-30 06:00 (UTC) (31分前)
気温
24
露点
19
湿数
5
相対湿度
73.6%
QNH
1014.2hPa
推定現地気圧
1013.2hPa
推定海面気圧
1014.1hPa
体感温度
16.7
(無風時)
23.8
HI
24.4
気温前日比
+3
体感温度前日比
+2.6
HI前日比
+3.2
水平視程
>10000m
鉛直視程
データなし
雲底高度
データなし
V/I
判定不可
RVR
No RVR data
卓越風
14kt from 130°
ガスト
No gust
降水
報告なし
その他の天気
NSC
報告なし

RJCO 300600Z 13014KT 9999 NSC 24/19 Q1014 RMK A2995

RJCJ  -  千歳基地

観測日時
2022-09-30 06:00 (UTC) (31分前)
気温
22
露点
16
湿数
6
相対湿度
68.8%
QNH
1015.2hPa
推定現地気圧
1012.0hPa
推定海面気圧
1015.2hPa
体感温度
13.7
(無風時)
22
HI
22.1
気温前日比
±0
体感温度前日比
-1.2
HI前日比
+0.3
水平視程
>10000m
鉛直視程
データなし
雲底高度
No dense clouds
V/I
VMC (VFR)
RVR
No RVR data
卓越風
15kt from 160°
ガスト
No gust
降水
報告なし
その他の天気
報告なし
少しの(1/8) 層雲 @ 1000ft AGL / 散在する(3/8) 層雲 @ 1500ft AGL

RJCJ 300600Z 16015KT 9999 FEW010 SCT015 22/16 Q1015 RMK 1ST010 3ST015 A2998

RJCW/WKJ  -  稚内

観測日時
2022-09-30 06:00 (UTC) (31分前)
気温
21
露点
17
湿数
4
相対湿度
77.9%
QNH
1009hPa
推定現地気圧
1008.0hPa
推定海面気圧
1008.9hPa
体感温度
11.8
(無風時)
21.6
HI
21.2
気温前日比
+4
体感温度前日比
+2.4
HI前日比
+4.7
水平視程
>10000m
鉛直視程
データなし
雲底高度
No dense clouds
V/I
VMC (VFR)
RVR
No RVR data
卓越風
21kt from 210°
ガスト
31kt
降水
報告なし
その他の天気
報告なし
散在する雲 @ 1700ft AGL

RJCW 300600Z 21021G31KT 9999 SCT017 21/17 Q1009

RJER/RIS  -  利尻

観測日時
2022-09-30 06:00 (UTC) (31分前)
気温
20
露点
17
湿数
3
相対湿度
82.9%
QNH
1010.5hPa
推定現地気圧
1006.8hPa
推定海面気圧
1010.4hPa
体感温度
10.1
(無風時)
21
HI
20.2
気温前日比
+3
体感温度前日比
+1.1
HI前日比
+3.7
水平視程
>10000m
鉛直視程
データなし
雲底高度
1200ft AGL
V/I
VMC (VFR)
RVR
No RVR data
卓越風
24kt from 220°
ガスト
No gust
降水
報告なし
その他の天気
報告なし
少しの雲 @ 1000ft AGL / 隙間のある雲 @ 1200ft AGL

RJER 300600Z 22024KT 9999 FEW010 BKN012 20/17 Q1010 RMK A2984

RJEC/AKJ  -  旭川

観測日時
2022-09-30 06:00 (UTC) (31分前)
気温
24
露点
15
湿数
9
相対湿度
57.1%
QNH
1013hPa
推定現地気圧
988.0hPa
推定海面気圧
1012.1hPa
体感温度
16.7
(無風時)
22.9
HI
23.9
気温前日比
+3
体感温度前日比
+1.7
HI前日比
+3.1
水平視程
>10000m
鉛直視程
データなし
雲底高度
No dense clouds
V/I
VMC (VFR)
RVR
No RVR data
卓越風
10kt from 190° (160° ~ 220°)
ガスト
No gust
降水
報告なし
その他の天気
報告なし
報告なし

RJEC 300600Z 19010KT 160V220 CAVOK 24/15 Q1013

RJCA/AKJ  -  旭川駐屯地

観測日時
2022-09-30 06:00 (UTC) (31分前)
気温
26
露点
15
湿数
11
相対湿度
50.7%
QNH
1013.9hPa
推定現地気圧
1000.1hPa
推定海面気圧
1013.3hPa
体感温度
19.2
(無風時)
23.9
HI
26
気温前日比
+4
体感温度前日比
+1.1
HI前日比
+4.1
水平視程
>10000m
鉛直視程
データなし
雲底高度
No dense clouds
V/I
VMC (VFR)
RVR
No RVR data
卓越風
8kt from 210°
ガスト
No gust
降水
報告なし
その他の天気
報告なし
少しの(1/8) 積雲 @ 2000ft AGL

RJCA 300600Z 21008KT 9999 FEW020 26/15 Q1014 RMK 1CU020 A2994

RJEB/MBE  -  紋別

観測日時
2022-09-30 06:00 (UTC) (31分前)
気温
27
露点
14
湿数
13
相対湿度
44.8%
QNH
1010hPa
推定現地気圧
1007.8hPa
推定海面気圧
1009.9hPa
体感温度
19.8
(無風時)
24.2
HI
27.1
気温前日比
+12
体感温度前日比
+13.1
HI前日比
+12.1
水平視程
>10000m
鉛直視程
データなし
雲底高度
No dense clouds
V/I
VMC (VFR)
RVR
No RVR data
卓越風
9kt from 240°
ガスト
No gust
降水
報告なし
その他の天気
報告なし
少しの雲 @ 4000ft AGL

RJEB 300600Z 24009KT 9999 FEW040 27/14 Q1010

RJCM/MMB  -  女満別

観測日時
2022-09-30 06:00 (UTC) (31分前)
気温
24
露点
15
湿数
9
相対湿度
57.1%
QNH
1011hPa
推定現地気圧
1007.0hPa
推定海面気圧
1010.8hPa
体感温度
17.2
(無風時)
22.9
HI
23.9
気温前日比
+8
体感温度前日比
+10.9
HI前日比
+8.1
水平視程
>10000m
鉛直視程
データなし
雲底高度
No dense clouds
V/I
VMC (VFR)
RVR
No RVR data
卓越風
8kt from 220° (180° ~ 250°)
ガスト
No gust
降水
報告なし
その他の天気
報告なし
報告なし

RJCM 300600Z 22008KT 180V250 CAVOK 24/15 Q1011

RJCK/KUH  -  釧路

観測日時
2022-09-30 06:00 (UTC) (31分前)
気温
19
露点
16
湿数
3
相対湿度
82.7%
QNH
1014hPa
推定現地気圧
1002.6hPa
推定海面気圧
1013.8hPa
体感温度
10.7
(無風時)
20.2
HI
19.1
気温前日比
-2
体感温度前日比
-4.3
HI前日比
-1.7
水平視程
>10000m
鉛直視程
データなし
雲底高度
No dense clouds
V/I
VMC (VFR)
RVR
No RVR data
卓越風
11kt from 200°
ガスト
No gust
降水
報告なし
その他の天気
報告なし
少しの雲 @ 1000ft AGL

RJCK 300600Z 20011KT 9999 FEW010 19/16 Q1014

RJCB/OBO  -  帯広

観測日時
2022-09-30 06:00 (UTC) (31分前)
気温
22
露点
17
湿数
5
相対湿度
73.3%
QNH
1014hPa
推定現地気圧
996.2hPa
推定海面気圧
1013.5hPa
体感温度
16.9
(無風時)
22.2
HI
22.2
気温前日比
-2
体感温度前日比
-1.7
HI前日比
-1.5
水平視程
>10000m
鉛直視程
データなし
雲底高度
No dense clouds
V/I
VMC (VFR)
RVR
No RVR data
卓越風
4kt from 160° (110° ~ 200°)
ガスト
No gust
降水
報告なし
その他の天気
報告なし
少しの雲 @ 4000ft AGL

RJCB 300600Z 16004KT 110V200 9999 FEW040 22/17 Q1014

RJCN/SHB  -  中標津

観測日時
2022-09-30 06:00 (UTC) (31分前)
気温
22
露点
17
湿数
5
相対湿度
73.3%
QNH
1013hPa
推定現地気圧
1005.2hPa
推定海面気圧
1012.8hPa
体感温度
14.8
(無風時)
22.2
HI
22.2
気温前日比
+2
体感温度前日比
+2.4
HI前日比
+2.4
水平視程
>10000m
鉛直視程
データなし
雲底高度
No dense clouds
V/I
VMC (VFR)
RVR
No RVR data
卓越風
10kt from 220° (180° ~ 270°)
ガスト
No gust
降水
報告なし
その他の天気
報告なし
少しの雲 @ 2000ft AGL / 散在する雲 @ 3000ft AGL

RJCN 300600Z 22010KT 180V270 9999 FEW020 SCT030 22/17 Q1013

RJCT  -  帯広駐屯地/十勝飛行場

観測日時
2022-09-30 06:00 (UTC) (31分前)
気温
22
露点
15
湿数
7
相対湿度
64.5%
QNH
1015.9hPa
推定現地気圧
1005.6hPa
推定海面気圧
1015.6hPa
体感温度
16.1
(無風時)
21.8
HI
21.9
気温前日比
-3
体感温度前日比
-3.4
HI前日比
-2.8
水平視程
>10000m
鉛直視程
データなし
雲底高度
データなし
V/I
判定不可
RVR
No RVR data
卓越風
5kt from 180°
ガスト
No gust
降水
報告なし
その他の天気
NSC
報告なし

RJCT 300600Z 18005KT 9999 NSC 22/15 Q1016 RMK A3000

RJCH/HKD  -  函館

観測日時
2022-09-30 06:00 (UTC) (31分前)
気温
23
露点
19
湿数
4
相対湿度
78.2%
QNH
1015hPa
推定現地気圧
1009.5hPa
推定海面気圧
1014.9hPa
体感温度
16.2
(無風時)
23.3
HI
23.4
気温前日比
±0
体感温度前日比
+0.4
HI前日比
+0.4
水平視程
>10000m
鉛直視程
データなし
雲底高度
3500ft AGL
V/I
VMC (VFR)
RVR
No RVR data
卓越風
10kt from 230°
ガスト
No gust
降水
報告なし
その他の天気
報告なし
少しの雲 @ 2000ft AGL / 散在する雲 @ 3000ft AGL / 隙間のある雲 @ 3500ft AGL

RJCH 300600Z 23010KT 9999 FEW020 SCT030 BKN035 23/19 Q1015

RJEO/OIR  -  奥尻

観測日時
2022-09-30 05:00 (UTC) (91分前)
気温
23
露点
19
湿数
4
相対湿度
78.2%
QNH
1015.6hPa
推定現地気圧
1009.7hPa
推定海面気圧
1015.4hPa
体感温度
16.4
(無風時)
23.3
HI
23.4
気温前日比
+3
体感温度前日比
+2.7
HI前日比
+3.2
水平視程
>10000m
鉛直視程
データなし
雲底高度
No dense clouds
V/I
VMC (VFR)
RVR
No RVR data
卓越風
9kt from 200°
ガスト
No gust
降水
報告なし
その他の天気
報告なし
散在する雲 @ 2500ft AGL

RJEO 300500Z 20009KT 9999 SCT025 23/19 Q1015 RMK A2999

1123.7msec